Time,TemperatureF,DewpointF,PressureIn,WindDirection,WindDirectionDegrees,WindSpeedMPH,WindSpeedGustMPH,Humidity,HourlyPrecipIn,Conditions,Clouds,dailyrainin,SoftwareType,DateUTC
2013-11-17 00:02:00,28.0,25.0,-100.00,SW,236,9.0,13.0,87,0.00,,,0.12,,2013-11-17 07:02:00,
2013-11-17 00:22:00,27.0,25.0,-100.00,WSW,241,13.0,18.0,90,0.00,,,0.12,,2013-11-17 07:22:00,
2013-11-17 00:32:00,27.0,25.0,-100.00,WSW,241,13.0,18.0,90,0.00,,,0.12,,2013-11-17 07:32:00,
2013-11-17 00:53:00,27.0,25.0,-100.00,SW,230,19.0,21.0,91,0.00,,,0.12,,2013-11-17 07:53:00,
2013-11-17 01:01:00,27.0,25.0,-100.00,SW,230,19.0,21.0,91,0.00,,,0.12,,2013-11-17 08:01:00,
2013-11-17 01:21:00,26.0,24.0,-100.00,SW,222,20.0,22.0,91,0.00,,,0.12,,2013-11-17 08:21:00,
2013-11-17 01:32:00,26.0,24.0,-100.00,SW,222,20.0,22.0,91,0.00,,,0.12,,2013-11-17 08:32:00,
2013-11-17 01:52:00,26.0,24.0,-100.00,WSW,243,14.0,17.0,92,0.00,,,0.12,,2013-11-17 08:52:00,
2013-11-17 02:03:00,26.0,24.0,-100.00,WSW,243,14.0,17.0,92,0.00,,,0.12,,2013-11-17 09:03:00,
2013-11-17 02:22:00,25.0,24.0,-100.00,SW,233,15.0,16.0,93,0.00,,,0.12,,2013-11-17 09:22:00,
2013-11-17 02:33:00,25.0,24.0,-100.00,SW,233,15.0,16.0,93,0.00,,,0.12,,2013-11-17 09:33:00,
2013-11-17 02:53:00,24.0,22.0,-100.00,WSW,237,10.0,12.0,94,0.00,,,0.12,,2013-11-17 09:53:00,
2013-11-17 03:03:00,24.0,22.0,-100.00,WSW,237,10.0,12.0,94,0.00,,,0.12,,2013-11-17 10:03:00,
2013-11-17 03:23:00,24.0,22.0,-100.00,WSW,241,9.0,11.0,93,0.00,,,0.12,,2013-11-17 10:23:00,
2013-11-17 03:33:00,24.0,22.0,-100.00,WSW,241,9.0,11.0,93,0.00,,,0.12,,2013-11-17 10:33:00,
2013-11-17 03:53:00,25.0,23.0,-100.00,WSW,243,13.0,14.0,91,0.00,,,0.12,,2013-11-17 10:53:00,
2013-11-17 04:02:00,25.0,23.0,-100.00,WSW,243,13.0,14.0,91,0.00,,,0.12,,2013-11-17 11:02:00,
2013-11-17 04:22:00,26.0,23.0,-100.00,West,261,13.0,15.0,88,0.00,,,0.12,,2013-11-17 11:22:00,
2013-11-17 04:32:00,26.0,23.0,-100.00,West,261,13.0,15.0,88,0.00,,,0.12,,2013-11-17 11:32:00,
2013-11-17 04:52:00,24.0,22.0,-100.00,WSW,244,8.0,9.0,90,0.00,,,0.11,,2013-11-17 11:52:00,
2013-11-17 05:02:00,24.0,22.0,-100.00,WSW,244,8.0,9.0,90,0.00,,,0.11,,2013-11-17 12:02:00,
2013-11-17 05:22:00,22.0,20.0,-100.00,SSE,150,8.0,10.0,93,0.00,,,0.09,,2013-11-17 12:22:00,
2013-11-17 05:32:00,22.0,20.0,-100.00,SSE,150,8.0,10.0,93,0.00,,,0.09,,2013-11-17 12:32:00,
2013-11-17 05:52:00,28.0,24.0,-100.00,South,182,9.0,14.0,83,0.00,,,0.07,,2013-11-17 12:52:00,
2013-11-17 06:01:00,28.0,24.0,-100.00,South,182,9.0,14.0,83,0.00,,,0.07,,2013-11-17 13:01:00,
2013-11-17 06:21:00,25.0,22.0,-100.00,South,172,12.0,14.0,89,0.00,,,0.07,,2013-11-17 13:21:00,
2013-11-17 06:32:00,25.0,22.0,-100.00,South,172,12.0,14.0,89,0.00,,,0.07,,2013-11-17 13:32:00,
2013-11-17 06:52:00,26.0,24.0,-100.00,South,191,11.0,15.0,89,0.00,,,0.05,,2013-11-17 13:52:00,
2013-11-17 07:02:00,26.0,24.0,-100.00,South,191,11.0,15.0,89,0.00,,,0.05,,2013-11-17 14:02:00,
2013-11-17 07:21:00,27.0,24.0,-100.00,South,185,10.0,13.0,87,0.00,,,0.05,,2013-11-17 14:21:00,
2013-11-17 07:32:00,27.0,24.0,-100.00,South,185,10.0,13.0,87,0.00,,,0.05,,2013-11-17 14:32:00,
2013-11-17 07:52:00,27.0,24.0,-100.00,South,186,9.0,12.0,88,0.00,,,0.05,,2013-11-17 14:52:00,
2013-11-17 08:02:00,27.0,24.0,-100.00,South,186,9.0,12.0,88,0.00,,,0.05,,2013-11-17 15:02:00,
2013-11-17 08:22:00,27.0,24.0,-100.00,SSW,212,11.0,15.0,88,0.00,,,0.05,,2013-11-17 15:22:00,
2013-11-17 08:34:00,27.0,24.0,-100.00,SSW,212,11.0,15.0,88,0.00,,,0.05,,2013-11-17 15:34:00,
2013-11-17 08:54:00,29.0,25.0,-100.00,SSW,193,9.0,13.0,86,0.00,,,0.05,,2013-11-17 15:54:00,
2013-11-17 09:03:00,29.0,25.0,-100.00,SSW,193,9.0,13.0,86,0.00,,,0.05,,2013-11-17 16:03:00,
2013-11-17 09:23:00,31.0,26.0,-100.00,SSW,199,10.0,12.0,82,0.00,,,0.04,,2013-11-17 16:23:00,
2013-11-17 09:33:00,31.0,26.0,-100.00,SSW,199,10.0,12.0,82,0.00,,,0.04,,2013-11-17 16:33:00,
2013-11-17 09:53:00,33.0,27.0,-100.00,SW,216,11.0,19.0,79,0.00,,,0.03,,2013-11-17 16:53:00,
2013-11-17 10:03:00,33.0,27.0,-100.00,SW,216,11.0,19.0,79,0.00,,,0.03,,2013-11-17 17:03:00,
2013-11-17 10:22:00,35.0,28.0,-100.00,SSW,208,11.0,13.0,76,0.00,,,0.03,,2013-11-17 17:22:00,
2013-11-17 10:33:00,35.0,28.0,-100.00,SSW,208,11.0,13.0,76,0.00,,,0.03,,2013-11-17 17:33:00,
2013-11-17 10:52:00,36.0,29.0,-100.00,SSW,202,11.0,14.0,74,0.00,,,0.03,,2013-11-17 17:52:00,
2013-11-17 11:03:00,36.0,29.0,-100.00,SSW,202,11.0,14.0,74,0.00,,,0.03,,2013-11-17 18:03:00,
2013-11-17 11:23:00,38.0,27.0,-100.00,SSW,203,13.0,16.0,67,0.00,,,0.03,,2013-11-17 18:23:00,
2013-11-17 11:32:00,38.0,27.0,-100.00,SSW,203,13.0,16.0,67,0.00,,,0.03,,2013-11-17 18:32:00,
2013-11-17 11:52:00,38.0,27.0,-100.00,SSW,199,13.0,19.0,64,0.00,,,0.03,,2013-11-17 18:52:00,
2013-11-17 12:02:00,38.0,27.0,-100.00,SSW,199,13.0,19.0,64,0.00,,,0.03,,2013-11-17 19:02:00,
2013-11-17 12:21:00,40.0,27.0,-100.00,SSW,196,14.0,18.0,60,0.00,,,0.01,,2013-11-17 19:21:00,
2013-11-17 12:32:00,40.0,27.0,-100.00,SSW,196,14.0,18.0,60,0.00,,,0.01,,2013-11-17 19:32:00,
2013-11-17 12:52:00,40.0,25.0,-100.00,SSW,202,14.0,19.0,54,0.00,,,0.01,,2013-11-17 19:52:00,
2013-11-17 13:02:00,40.0,25.0,-100.00,SSW,202,14.0,19.0,54,0.00,,,0.01,,2013-11-17 20:02:00,
2013-11-17 13:22:00,41.0,25.0,-100.00,SW,220,18.0,23.0,53,0.00,,,0.01,,2013-11-17 20:22:00,
2013-11-17 13:32:00,41.0,25.0,-100.00,SW,220,18.0,23.0,53,0.00,,,0.01,,2013-11-17 20:32:00,
2013-11-17 13:52:00,41.0,25.0,-100.00,SW,217,15.0,20.0,52,0.00,,,0.01,,2013-11-17 20:52:00,
2013-11-17 14:02:00,41.0,25.0,-100.00,SW,217,15.0,20.0,52,0.00,,,0.01,,2013-11-17 21:02:00,
2013-11-17 14:22:00,42.0,22.0,-100.00,SSW,202,12.0,17.0,44,0.00,,,0.01,,2013-11-17 21:22:00,
2013-11-17 14:34:00,42.0,22.0,-100.00,SSW,202,12.0,17.0,44,0.00,,,0.01,,2013-11-17 21:34:00,
2013-11-17 14:55:00,42.0,21.0,-100.00,SW,230,20.0,24.0,43,0.00,,,0.01,,2013-11-17 21:55:00,
2013-11-17 15:04:00,42.0,21.0,-100.00,SW,230,20.0,24.0,43,0.00,,,0.01,,2013-11-17 22:04:00,
2013-11-17 15:24:00,42.0,22.0,-100.00,SSW,213,16.0,21.0,46,0.00,,,0.01,,2013-11-17 22:24:00,
2013-11-17 15:34:00,42.0,22.0,-100.00,SSW,213,16.0,21.0,46,0.00,,,0.01,,2013-11-17 22:34:00,
2013-11-17 15:53:00,42.0,23.0,-100.00,SW,233,19.0,22.0,45,0.00,,,0.01,,2013-11-17 22:53:00,
2013-11-17 16:03:00,42.0,23.0,-100.00,SW,233,19.0,22.0,45,0.00,,,0.01,,2013-11-17 23:03:00,
2013-11-17 16:23:00,42.0,24.0,-100.00,SW,217,12.0,17.0,50,0.00,,,0.01,,2013-11-17 23:23:00,
2013-11-17 16:33:00,42.0,24.0,-100.00,SW,217,12.0,17.0,50,0.00,,,0.01,,2013-11-17 23:33:00,
2013-11-17 16:52:00,41.0,25.0,-100.00,SW,216,9.0,11.0,52,0.00,,,0.00,,2013-11-17 23:52:00,
2013-11-17 17:01:00,41.0,25.0,-100.00,SW,216,9.0,11.0,52,0.00,,,0.00,,2013-11-18 00:01:00,
2013-11-17 17:21:00,40.0,26.0,-100.00,SSW,206,8.0,10.0,57,0.00,,,0.00,,2013-11-18 00:21:00,
2013-11-17 17:32:00,40.0,26.0,-100.00,SSW,206,8.0,10.0,57,0.00,,,0.00,,2013-11-18 00:32:00,
2013-11-17 17:52:00,37.0,26.0,-100.00,South,188,6.0,9.0,63,0.00,,,0.00,,2013-11-18 00:52:00,
2013-11-17 18:01:00,37.0,26.0,-100.00,South,188,6.0,9.0,63,0.00,,,0.00,,2013-11-18 01:01:00,
2013-11-17 18:22:00,36.0,26.0,-100.00,SSW,209,5.0,6.0,67,0.00,,,0.00,,2013-11-18 01:22:00,
2013-11-17 18:32:00,36.0,26.0,-100.00,SSW,209,5.0,6.0,67,0.00,,,0.00,,2013-11-18 01:32:00,
2013-11-17 18:52:00,32.0,24.0,-100.00,SSE,168,2.0,4.0,73,0.00,,,0.00,,2013-11-18 01:52:00,
2013-11-17 19:01:00,32.0,24.0,-100.00,SSE,168,2.0,4.0,73,0.00,,,0.00,,2013-11-18 02:01:00,
2013-11-17 19:21:00,33.0,25.0,-100.00,SSW,212,2.0,4.0,72,0.00,,,0.00,,2013-11-18 02:21:00,
2013-11-17 19:32:00,33.0,25.0,-100.00,SSW,212,2.0,4.0,72,0.00,,,0.00,,2013-11-18 02:32:00,
2013-11-17 19:52:00,31.0,24.0,-100.00,WSW,240,6.0,8.0,74,0.00,,,0.00,,2013-11-18 02:52:00,
2013-11-17 20:02:00,31.0,24.0,-100.00,WSW,240,6.0,8.0,74,0.00,,,0.00,,2013-11-18 03:02:00,
2013-11-17 20:22:00,29.0,24.0,-100.00,SSE,155,6.0,7.0,80,0.00,,,0.00,,2013-11-18 03:22:00,
2013-11-17 20:34:00,29.0,24.0,-100.00,SSE,155,6.0,7.0,80,0.00,,,0.00,,2013-11-18 03:34:00,
2013-11-17 20:54:00,29.0,24.0,-100.00,South,176,4.0,6.0,80,0.00,,,0.00,,2013-11-18 03:54:00,
2013-11-17 21:03:00,29.0,24.0,-100.00,South,176,4.0,6.0,80,0.00,,,0.00,,2013-11-18 04:03:00,
2013-11-17 21:23:00,28.0,24.0,-100.00,WSW,248,3.0,3.0,83,0.00,,,0.00,,2013-11-18 04:23:00,
2013-11-17 21:33:00,28.0,24.0,-100.00,WSW,248,3.0,3.0,83,0.00,,,0.00,,2013-11-18 04:33:00,
2013-11-17 21:52:00,32.0,26.0,-100.00,SW,220,4.0,5.0,79,0.00,,,0.00,,2013-11-18 04:52:00,
2013-11-17 22:02:00,32.0,26.0,-100.00,SW,220,4.0,5.0,79,0.00,,,0.00,,2013-11-18 05:02:00,
2013-11-17 22:22:00,32.0,26.0,-100.00,SW,219,4.0,5.0,80,0.00,,,0.00,,2013-11-18 05:22:00,
2013-11-17 22:32:00,32.0,26.0,-100.00,SW,219,4.0,5.0,80,0.00,,,0.00,,2013-11-18 05:32:00,
2013-11-17 22:53:00,27.0,24.0,-100.00,SW,233,4.0,5.0,89,0.00,,,0.00,,2013-11-18 05:53:00,
2013-11-17 23:02:00,27.0,24.0,-100.00,SW,233,4.0,5.0,89,0.00,,,0.00,,2013-11-18 06:02:00,